Time;durP1;ratioP1;P1;durP2;ratioP2;P2;SDS_P1;SDS_P2;PMS_P1;PMS_P2;Temp;Humidity;BMP_temperature;BMP_pressure;BME280_temperature;BME280_humidity;BME280_pressure;Samples;Min_cycle;Max_cycle;Signal;HPM_P1;HPM_P2
2021/07/17 00:00:30;;;;;;;;;12.25;12.25;;;;;20.02;56.95;102083.41;6340963;22;45329;-73
2021/07/17 00:02:55;;;;;;;;;14.00;14.00;;;;;19.82;57.14;102059.16;6340809;22;45258;-73
2021/07/17 00:05:21;;;;;;;;;11.25;10.00;;;;;20.09;56.89;102102.94;6340864;22;45231;-73
2021/07/17 00:07:47;;;;;;;;;13.50;11.50;;;;;20.05;56.73;102107.66;6340947;22;45215;-73
2021/07/17 00:10:19;;;;;;;;;16.50;12.25;;;;;19.96;56.86;102086.41;6341319;22;45140;-73
2021/07/17 00:12:45;;;;;;;;;14.50;13.25;;;;;20.03;57.14;102096.00;6340938;22;45294;-73
2021/07/17 00:15:13;;;;;;;;;12.25;11.75;;;;;19.94;56.89;102086.50;6312724;22;46156;-73
2021/07/17 00:17:39;;;;;;;;;15.25;15.00;;;;;19.85;57.19;102078.84;6312156;22;45462;-72
2021/07/17 00:20:10;;;;;;;;;10.75;10.00;;;;;19.94;57.29;102104.59;6341879;22;45217;-73
2021/07/17 00:22:36;;;;;;;;;12.75;11.75;;;;;19.92;57.08;102095.66;6341343;22;45433;-72
2021/07/17 00:25:07;;;;;;;;;13.25;11.75;;;;;19.91;56.81;102091.19;6313984;22;46973;-73
2021/07/17 00:27:33;;;;;;;;;13.50;13.25;;;;;19.89;56.94;102101.25;6342340;22;45388;-73
2021/07/17 00:29:58;;;;;;;;;13.00;12.00;;;;;19.75;56.95;102077.56;6314180;22;45367;-73
2021/07/17 00:32:24;;;;;;;;;12.00;10.50;;;;;19.87;57.43;102104.03;6341600;22;45380;-73
2021/07/17 00:34:49;;;;;;;;;14.00;14.00;;;;;19.84;57.12;102100.59;6314334;22;45495;-73
2021/07/17 00:37:14;;;;;;;;;18.75;15.50;;;;;19.72;57.44;102081.25;6342189;22;48119;-73
2021/07/17 00:39:40;;;;;;;;;14.00;10.00;;;;;19.82;57.55;102099.81;6342570;22;45353;-73
2021/07/17 00:42:05;;;;;;;;;17.50;11.50;;;;;19.74;57.51;102097.44;6342401;22;45285;-73
2021/07/17 00:44:31;;;;;;;;;11.50;10.25;;;;;19.59;57.82;102071.97;6341592;22;46106;-73
2021/07/17 00:46:58;;;;;;;;;11.50;11.00;;;;;19.53;57.82;102073.16;6342090;22;45200;-73
2021/07/17 00:49:28;;;;;;;;;13.25;10.25;;;;;19.51;57.66;102066.94;6342104;22;45323;-73
2021/07/17 00:51:53;;;;;;;;;16.25;13.00;;;;;19.51;57.93;102060.63;6342412;22;45400;-73
2021/07/17 00:54:20;;;;;;;;;14.50;11.75;;;;;19.71;58.18;102100.28;6313799;22;47831;-73
2021/07/17 00:56:47;;;;;;;;;14.50;13.00;;;;;19.67;57.95;102099.56;6342382;22;45167;-73
2021/07/17 00:59:17;;;;;;;;;9.00;9.00;;;;;19.64;57.75;102099.72;6313971;22;45239;-73
2021/07/17 01:01:43;;;;;;;;;14.25;14.25;;;;;19.62;58.21;102088.94;6313548;22;45359;-73
2021/07/17 01:04:09;;;;;;;;;15.00;12.50;;;;;19.52;57.99;102082.22;6313563;22;45457;-73
2021/07/17 01:06:35;;;;;;;;;13.00;12.00;;;;;19.71;57.95;102112.03;6342127;22;45383;-73
2021/07/17 01:09:00;;;;;;;;;17.25;15.25;;;;;19.66;58.04;102118.59;6342177;22;45192;-73
2021/07/17 01:11:26;;;;;;;;;13.50;12.50;;;;;19.61;58.18;102111.59;6313857;22;45405;-73
2021/07/17 01:13:51;;;;;;;;;15.00;13.50;;;;;19.54;58.16;102104.69;6313242;22;46340;-73
2021/07/17 01:16:16;;;;;;;;;13.50;12.75;;;;;19.46;58.18;102097.91;6341664;22;45144;-73
2021/07/17 01:18:43;;;;;;;;;14.00;11.25;;;;;19.39;58.60;102090.06;6313867;22;45641;-73
2021/07/17 01:21:15;;;;;;;;;10.75;10.75;;;;;19.41;58.41;102090.00;6341443;22;45156;-73
2021/07/17 01:23:41;;;;;;;;;14.25;14.25;;;;;19.47;58.44;102105.09;6341663;22;46297;-72
2021/07/17 01:26:06;;;;;;;;;13.75;13.75;;;;;19.30;58.63;102081.53;6313520;22;45360;-73
2021/07/17 01:28:32;;;;;;;;;14.25;13.25;;;;;19.40;58.71;102097.25;6342112;22;45152;-73
2021/07/17 01:30:57;;;;;;;;;14.25;13.00;;;;;19.43;58.82;102101.66;6341288;22;45191;-73
2021/07/17 01:33:22;;;;;;;;;14.75;13.25;;;;;19.43;59.00;102098.94;6341726;22;45256;-72
2021/07/17 01:35:49;;;;;;;;;12.00;11.00;;;;;19.34;58.70;102083.13;6342096;22;45191;-72
2021/07/17 01:38:14;;;;;;;;;16.50;13.50;;;;;19.39;58.48;102095.47;6342191;22;45206;-72
2021/07/17 01:40:40;;;;;;;;;14.75;14.00;;;;;19.18;58.61;102073.03;6313628;22;45485;-73
2021/07/17 01:43:05;;;;;;;;;14.50;12.50;;;;;19.08;59.29;102060.88;6312526;22;46389;-73
2021/07/17 01:45:38;;;;;;;;;15.50;13.25;;;;;19.00;59.02;102047.72;6341150;22;45747;-72
2021/07/17 01:48:05;;;;;;;;;14.75;14.25;;;;;19.01;59.16;102051.28;6341300;22;45402;-73
2021/07/17 01:50:31;;;;;;;;;14.25;14.00;;;;;19.19;58.96;102082.88;6341867;22;45308;-72
2021/07/17 01:52:58;;;;;;;;;13.75;11.25;;;;;19.03;59.02;102062.94;6341438;22;45405;-73
2021/07/17 01:55:24;;;;;;;;;14.25;13.25;;;;;19.00;59.21;102057.66;6313423;22;45243;-72
2021/07/17 01:57:50;;;;;;;;;12.75;11.75;;;;;19.01;59.41;102068.41;6342053;22;45312;-72
2021/07/17 02:00:19;;;;;;;;;16.00;15.75;;;;;19.01;59.06;102057.59;6313542;22;45172;-73
2021/07/17 02:02:45;;;;;;;;;13.75;10.50;;;;;19.01;59.12;102063.00;6313010;22;46173;-73
2021/07/17 02:05:11;;;;;;;;;15.25;14.25;;;;;18.94;59.65;102050.69;6341968;22;45457;-73
2021/07/17 02:07:36;;;;;;;;;14.50;13.00;;;;;18.98;59.65;102060.44;6313555;22;45312;-73
2021/07/17 02:10:23;;;;;;;;;15.25;12.50;;;;;19.11;59.36;102082.41;6341668;22;45330;-73
2021/07/17 02:12:59;;;;;;;;;14.75;13.25;;;;;19.17;59.43;102105.59;6313229;22;47591;-73
2021/07/17 02:15:25;;;;;;;;;10.75;10.75;;;;;19.15;59.39;102107.50;6341165;22;45294;-73
2021/07/17 02:17:52;;;;;;;;;20.25;15.75;;;;;19.13;59.71;102095.84;6341794;22;45089;-73
2021/07/17 02:20:17;;;;;;;;;13.00;13.00;;;;;18.97;59.37;102071.34;6340723;22;45476;-73
2021/07/17 02:22:43;;;;;;;;;16.25;15.25;;;;;19.06;59.35;102085.31;6311841;22;47027;-73
2021/07/17 02:25:09;;;;;;;;;15.00;14.00;;;;;19.02;59.55;102077.41;6341185;22;45235;-73
2021/07/17 02:27:34;;;;;;;;;15.75;13.50;;;;;19.12;59.31;102094.97;6342008;22;45155;-73
2021/07/17 02:30:00;;;;;;;;;15.75;15.75;;;;;19.01;59.12;102081.94;6313108;22;45333;-73
2021/07/17 02:32:25;;;;;;;;;14.75;12.50;;;;;19.06;59.66;102103.34;6341005;22;45519;-73
2021/07/17 02:34:50;;;;;;;;;18.50;17.25;;;;;19.00;60.04;102084.72;6341334;22;45355;-73
2021/07/17 02:37:17;;;;;;;;;18.00;16.50;;;;;18.98;59.72;102078.53;6341745;22;45368;-72
2021/07/17 02:39:43;;;;;;;;;19.50;18.75;;;;;18.94;60.04;102083.16;6341421;22;45344;-73
2021/07/17 02:42:08;;;;;;;;;18.25;15.50;;;;;18.74;59.90;102046.19;6313295;22;45382;-72
2021/07/17 02:44:34;;;;;;;;;16.25;16.25;;;;;18.96;60.02;102094.81;6340333;22;45455;-73
2021/07/17 02:46:59;;;;;;;;;14.00;14.00;;;;;18.99;59.78;102093.78;6340442;22;45366;-73
2021/07/17 02:49:24;;;;;;;;;11.50;11.50;;;;;18.82;60.22;102064.78;6341458;22;45343;-73
2021/07/17 02:51:50;;;;;;;;;18.75;15.00;;;;;18.83;59.80;102063.88;6341424;22;46277;-73
2021/07/17 02:54:16;;;;;;;;;25.75;21.75;;;;;18.92;60.11;102095.91;6312101;22;45380;-73
2021/07/17 02:56:42;;;;;;;;;13.50;13.00;;;;;18.87;59.79;102087.13;6313138;22;45274;-73
2021/07/17 02:59:07;;;;;;;;;16.50;15.25;;;;;18.68;60.58;102057.31;6341507;22;45370;-73
2021/07/17 03:01:33;;;;;;;;;17.00;15.00;;;;;18.76;60.23;102070.47;6312695;22;47943;-72
2021/07/17 03:03:58;;;;;;;;;17.50;15.00;;;;;18.79;60.25;102089.25;6312712;22;45265;-73
2021/07/17 03:06:24;;;;;;;;;17.25;15.75;;;;;18.58;60.19;102056.84;6341846;22;45365;-73
2021/07/17 03:08:49;;;;;;;;;18.75;16.00;;;;;18.54;60.41;102063.31;6341239;22;45441;-73
2021/07/17 03:11:14;;;;;;;;;18.75;15.00;;;;;18.71;60.42;102097.72;6313054;22;47170;-73
2021/07/17 03:13:40;;;;;;;;;19.75;16.25;;;;;18.59;60.39;102091.03;6311232;22;45298;-73
2021/07/17 03:16:05;;;;;;;;;20.50;15.00;;;;;18.58;60.68;102102.81;6313469;22;45328;-73
2021/07/17 03:18:31;;;;;;;;;20.00;16.00;;;;;18.53;61.03;102099.44;6341268;22;45310;-73
2021/07/17 03:20:56;;;;;;;;;16.50;14.25;;;;;18.54;60.89;102097.59;6312754;22;46690;-73
2021/07/17 03:23:21;;;;;;;;;19.25;17.00;;;;;18.44;61.12;102080.91;6340809;22;45184;-73
2021/07/17 03:25:47;;;;;;;;;17.75;16.25;;;;;18.44;60.99;102076.38;6313386;22;45338;-73
2021/07/17 03:28:12;;;;;;;;;16.25;15.50;;;;;18.34;61.45;102058.78;6341123;22;47053;-73
2021/07/17 03:30:37;;;;;;;;;17.50;16.25;;;;;18.49;61.13;102084.28;6312924;22;46212;-72
2021/07/17 03:33:03;;;;;;;;;20.75;16.75;;;;;18.32;61.03;102056.16;6341025;22;45369;-72
2021/07/17 03:35:28;;;;;;;;;16.50;16.50;;;;;18.50;61.31;102083.34;6341713;22;45290;-73
2021/07/17 03:37:53;;;;;;;;;18.50;16.25;;;;;18.58;61.41;102094.69;6341379;22;45361;-73
2021/07/17 03:40:19;;;;;;;;;18.75;16.50;;;;;18.58;61.30;102096.53;6341096;22;45329;-73
2021/07/17 03:42:44;;;;;;;;;17.25;15.25;;;;;18.26;61.07;102045.63;6340384;22;45279;-72
2021/07/17 03:45:10;;;;;;;;;20.75;16.75;;;;;18.47;61.40;102088.88;6341323;22;45242;-73
2021/07/17 03:47:36;;;;;;;;;17.00;17.00;;;;;18.52;61.43;102093.13;6341156;22;45369;-72
2021/07/17 03:50:03;;;;;;;;;17.50;16.50;;;;;18.50;61.62;102086.91;6312643;22;46495;-73
2021/07/17 03:52:28;;;;;;;;;15.00;14.00;;;;;18.44;61.60;102072.78;6341174;22;45150;-72
2021/07/17 03:54:53;;;;;;;;;22.25;18.25;;;;;18.50;61.57;102084.22;6341269;22;45107;-72
2021/07/17 03:57:19;;;;;;;;;17.25;16.25;;;;;18.22;61.56;102035.03;6341309;22;45244;-73
2021/07/17 03:59:44;;;;;;;;;19.75;17.25;;;;;18.44;61.65;102075.50;6340902;22;46047;-73
2021/07/17 04:02:10;;;;;;;;;19.50;16.25;;;;;18.50;61.36;102088.75;6340862;22;45313;-73
2021/07/17 04:04:40;;;;;;;;;17.75;15.75;;;;;18.47;61.11;102091.59;6341304;22;45153;-72
2021/07/17 04:07:05;;;;;;;;;21.75;18.00;;;;;18.24;61.72;102049.34;6312420;22;45392;-73
2021/07/17 04:09:30;;;;;;;;;21.75;19.75;;;;;18.43;61.71;102088.13;6340626;22;46012;-73
2021/07/17 04:11:56;;;;;;;;;20.50;16.00;;;;;18.52;61.22;102103.06;6341224;22;45222;-73
2021/07/17 04:14:21;;;;;;;;;21.50;17.00;;;;;18.47;61.37;102097.84;6312954;22;45420;-73
2021/07/17 04:16:47;;;;;;;;;19.50;18.75;;;;;18.48;61.40;102102.31;6340799;22;45481;-73
2021/07/17 04:19:13;;;;;;;;;17.75;17.00;;;;;18.50;61.47;102104.97;6340769;22;45148;-73
2021/07/17 04:21:38;;;;;;;;;21.00;17.25;;;;;18.39;61.61;102102.72;6340616;22;45306;-73
2021/07/17 04:24:04;;;;;;;;;18.75;16.50;;;;;18.23;61.31;102063.81;6340776;22;45157;-73
2021/07/17 04:26:29;;;;;;;;;21.25;19.50;;;;;18.49;61.82;102105.91;6340811;22;45450;-73
2021/07/17 04:28:55;;;;;;;;;20.75;18.00;;;;;18.37;61.60;102093.81;6313209;22;46043;-73
2021/07/17 04:31:20;;;;;;;;;19.50;15.00;;;;;18.35;61.63;102090.28;6312118;22;45163;-73
2021/07/17 04:33:46;;;;;;;;;20.25;17.75;;;;;18.28;61.56;102078.88;6340726;22;45387;-73
2021/07/17 04:36:11;;;;;;;;;17.00;14.75;;;;;18.29;62.04;102074.34;6312545;22;45381;-73
2021/07/17 04:38:38;;;;;;;;;21.25;19.50;;;;;18.35;61.65;102089.44;6340702;22;46605;-73
2021/07/17 04:41:03;;;;;;;;;21.00;17.75;;;;;18.23;61.77;102071.91;6312322;22;46217;-73
2021/07/17 04:43:28;;;;;;;;;19.25;17.50;;;;;18.23;61.91;102075.50;6312119;22;45257;-73
2021/07/17 04:45:54;;;;;;;;;24.00;18.50;;;;;18.39;62.13;102096.44;6312152;22;45405;-73
2021/07/17 04:48:19;;;;;;;;;25.75;21.00;;;;;18.24;61.73;102068.25;6340353;22;46199;-73
2021/07/17 04:50:45;;;;;;;;;20.50;18.25;;;;;18.47;61.92;102108.66;6312209;22;45188;-73
2021/07/17 04:53:10;;;;;;;;;23.25;22.00;;;;;18.44;62.02;102106.13;6312457;22;45511;-73
2021/07/17 04:55:35;;;;;;;;;18.25;16.00;;;;;18.35;61.73;102106.50;6340850;22;45239;-73
2021/07/17 04:58:01;;;;;;;;;14.00;14.00;;;;;18.23;61.93;102088.13;6312434;22;47018;-72
2021/07/17 05:00:26;;;;;;;;;22.00;18.75;;;;;18.17;61.81;102081.16;6340503;22;45199;-73
2021/07/17 05:02:54;;;;;;;;;19.00;18.75;;;;;18.41;62.17;102122.47;6340069;22;45156;-73
2021/07/17 05:05:21;;;;;;;;;21.50;19.00;;;;;18.32;61.78;102121.03;6340432;22;45585;-73
2021/07/17 05:07:48;;;;;;;;;23.00;17.75;;;;;18.27;61.83;102124.88;6341608;22;45330;-73
2021/07/17 05:10:17;;;;;;;;;22.25;17.00;;;;;18.31;61.73;102134.63;6341908;22;45570;-73
2021/07/17 05:12:44;;;;;;;;;18.75;18.75;;;;;18.17;61.92;102124.38;6342136;22;45175;-72
2021/07/17 05:15:11;;;;;;;;;22.25;20.00;;;;;18.17;61.91;102115.41;6341630;22;45161;-73
2021/07/17 05:17:38;;;;;;;;;21.50;18.00;;;;;18.29;61.95;102140.09;6313383;22;47304;-73
2021/07/17 05:20:06;;;;;;;;;21.00;21.00;;;;;18.24;62.30;102119.59;6341924;22;45359;-73
2021/07/17 05:22:31;;;;;;;;;20.50;19.25;;;;;18.24;61.99;102127.72;6341639;22;45097;-72
2021/07/17 05:24:57;;;;;;;;;24.00;21.00;;;;;18.07;62.41;102109.50;6341896;22;45268;-73
2021/07/17 05:27:22;;;;;;;;;21.25;18.25;;;;;18.12;62.45;102129.97;6341796;22;45112;-73
2021/07/17 05:29:48;;;;;;;;;21.75;19.00;;;;;18.15;62.87;102129.00;6314171;22;45243;-73
2021/07/17 05:32:14;;;;;;;;;19.75;18.25;;;;;18.07;62.83;102110.38;6341441;22;45211;-73
2021/07/17 05:34:40;;;;;;;;;24.00;22.25;;;;;17.99;62.95;102098.16;6314090;22;45223;-73
2021/07/17 05:37:07;;;;;;;;;20.75;17.00;;;;;18.17;62.64;102124.38;6314370;22;45400;-73
2021/07/17 05:39:32;;;;;;;;;22.75;21.25;;;;;18.03;62.86;102102.50;6313618;22;45171;-73
2021/07/17 05:41:58;;;;;;;;;23.00;20.75;;;;;18.18;62.68;102123.47;6313701;22;45392;-73
2021/07/17 05:44:23;;;;;;;;;21.50;18.50;;;;;18.13;62.59;102115.53;6341660;22;45293;-73
2021/07/17 05:46:48;;;;;;;;;25.25;21.25;;;;;18.11;62.79;102108.47;6313499;22;48268;-73
2021/07/17 05:49:14;;;;;;;;;22.75;19.75;;;;;18.15;62.98;102110.94;6341593;22;45250;-73
2021/07/17 05:51:39;;;;;;;;;23.25;20.50;;;;;18.12;63.08;102112.91;6342059;22;45270;-73
2021/07/17 05:54:04;;;;;;;;;23.75;22.00;;;;;18.12;62.63;102110.19;6313456;22;45291;-72
2021/07/17 05:56:30;;;;;;;;;27.50;25.50;;;;;17.99;62.91;102079.25;6342163;22;46507;-73
2021/07/17 05:58:55;;;;;;;;;26.50;24.50;;;;;18.21;62.54;102117.03;6313657;22;45366;-73
2021/07/17 06:01:20;;;;;;;;;20.75;19.50;;;;;18.08;62.78;102089.66;6341972;22;45203;-73
2021/07/17 06:03:47;;;;;;;;;25.50;23.75;;;;;18.26;62.58;102117.72;6341226;22;45513;-73
2021/07/17 06:06:12;;;;;;;;;21.75;19.50;;;;;18.20;63.06;102115.28;6341955;22;45160;-73
2021/07/17 06:08:37;;;;;;;;;27.75;23.75;;;;;18.14;62.99;102108.31;6341823;22;45203;-73
2021/07/17 06:11:03;;;;;;;;;19.75;19.75;;;;;18.12;63.03;102111.06;6341740;22;45175;-73
2021/07/17 06:13:28;;;;;;;;;28.00;23.00;;;;;18.17;63.19;102107.31;6336874;22;45259;-73
2021/07/17 06:15:53;;;;;;;;;22.75;21.50;;;;;18.18;62.79;102103.69;6340632;22;45520;-73
2021/07/17 06:18:21;;;;;;;;;25.25;22.25;;;;;18.11;62.76;102114.72;6340438;22;45297;-85
2021/07/17 06:27:44;;;;;;;;;26.00;23.00;;;;;17.74;63.23;102058.63;6227305;22;46328;-80
2021/07/17 06:30:10;;;;;;;;;23.75;22.00;;;;;17.68;63.54;102045.41;6340798;22;45394;-77
2021/07/17 06:32:35;;;;;;;;;25.00;19.00;;;;;17.98;63.39;102093.72;6338377;22;45512;-77
2021/07/17 06:35:23;;;;;;;;;;;;;;;;;;;;;
2021/07/17 06:38:07;;;;;;;;;;;;;;;;;;;;;
2021/07/17 06:40:40;;;;;;;;;23.00;22.25;;;;;17.91;63.70;102098.50;6339732;22;71214;-77
2021/07/17 06:43:06;;;;;;;;;23.25;20.00;;;;;17.80;63.64;102063.78;6312050;22;45352;-71
2021/07/17 06:45:31;;;;;;;;;25.50;24.50;;;;;17.91;63.20;102090.38;6339938;22;45255;-71
2021/07/17 06:47:57;;;;;;;;;25.25;24.00;;;;;18.17;63.72;102137.91;6337430;22;45318;-71
2021/07/17 06:50:23;;;;;;;;;28.50;20.75;;;;;18.19;63.91;102133.31;6338224;22;45338;-71
2021/07/17 06:52:49;;;;;;;;;30.25;24.75;;;;;18.07;63.55;102118.50;6339743;22;45321;-70
2021/07/17 06:55:14;;;;;;;;;26.75;19.50;;;;;18.30;63.41;102152.66;6340066;22;45612;-73
2021/07/17 06:57:41;;;;;;;;;24.00;20.75;;;;;18.28;63.42;102146.44;6340635;22;45607;-73
2021/07/17 07:00:08;;;;;;;;;25.25;20.50;;;;;18.22;63.39;102119.66;6311913;22;45327;-73
2021/07/17 07:02:34;;;;;;;;;26.50;23.00;;;;;18.37;63.53;102139.75;6340785;22;45360;-74
2021/07/17 07:05:00;;;;;;;;;24.00;21.75;;;;;18.42;63.40;102139.56;6341291;22;45265;-76
2021/07/17 07:07:25;;;;;;;;;26.50;24.00;;;;;18.36;63.51;102118.19;6340781;22;45231;-76
2021/07/17 07:09:50;;;;;;;;;24.00;22.00;;;;;18.19;63.71;102098.19;6341340;22;45409;-76
2021/07/17 07:12:16;;;;;;;;;21.25;19.50;;;;;18.39;63.89;102123.47;6341511;22;45363;-76
2021/07/17 07:14:42;;;;;;;;;24.25;20.25;;;;;18.24;63.80;102079.97;6312762;22;45334;-74
2021/07/17 07:17:08;;;;;;;;;26.50;24.50;;;;;18.22;63.52;102083.66;6311914;22;47116;-76
2021/07/17 07:19:33;;;;;;;;;30.75;25.00;;;;;18.58;64.00;102134.38;6341199;22;45305;-76
2021/07/17 07:21:59;;;;;;;;;23.75;19.75;;;;;18.41;63.43;102113.47;6341251;22;45591;-76
2021/07/17 07:24:24;;;;;;;;;23.00;23.00;;;;;18.30;63.17;102104.00;6340697;22;45340;-76
2021/07/17 07:26:50;;;;;;;;;27.25;24.75;;;;;18.36;63.81;102119.09;6341018;22;45347;-75
2021/07/17 07:29:15;;;;;;;;;25.00;18.00;;;;;18.38;63.30;102132.56;6340068;22;45794;-76
2021/07/17 07:31:41;;;;;;;;;24.75;24.75;;;;;18.47;63.61;102140.25;6312554;22;45274;-76
2021/07/17 07:34:06;;;;;;;;;24.00;21.75;;;;;18.62;63.83;102161.19;6312380;22;45239;-76
2021/07/17 07:36:32;;;;;;;;;30.75;23.25;;;;;18.61;63.50;102153.16;6312922;22;46799;-74
2021/07/17 07:39:00;;;;;;;;;25.00;21.00;;;;;18.36;64.04;102124.50;6341335;22;45239;-74
2021/07/17 07:41:25;;;;;;;;;29.50;26.00;;;;;18.67;63.81;102177.25;6341130;22;45268;-75
2021/07/17 07:43:50;;;;;;;;;24.50;24.00;;;;;18.67;64.10;102175.41;6340821;22;45415;-74
2021/07/17 07:46:16;;;;;;;;;28.75;25.50;;;;;18.53;63.56;102140.00;6340730;22;45352;-74
2021/07/17 07:48:42;;;;;;;;;30.00;26.50;;;;;18.52;63.79;102143.63;6341126;22;45321;-73
2021/07/17 07:51:09;;;;;;;;;24.00;23.00;;;;;18.42;63.46;102116.09;6341215;22;45341;-73
2021/07/17 07:53:34;;;;;;;;;26.25;22.00;;;;;18.77;63.78;102178.59;6340808;22;45321;-73
2021/07/17 07:56:02;;;;;;;;;21.00;21.00;;;;;18.81;63.48;102163.09;6337666;22;46097;-73
2021/07/17 07:58:27;;;;;;;;;29.00;27.25;;;;;18.69;63.48;102127.56;6338880;22;45740;-73
2021/07/17 08:00:53;;;;;;;;;22.50;21.25;;;;;18.94;63.32;102164.34;6340200;22;45227;-74
2021/07/17 08:03:18;;;;;;;;;22.25;20.50;;;;;18.77;63.66;102138.00;6340465;22;45337;-73
2021/07/17 08:05:44;;;;;;;;;25.25;24.25;;;;;19.01;63.49;102175.75;6340557;22;45214;-74
2021/07/17 08:08:09;;;;;;;;;25.75;25.00;;;;;19.06;63.01;102196.28;6340618;22;45147;-74
2021/07/17 08:10:34;;;;;;;;;26.25;23.50;;;;;18.92;63.81;102170.78;6339006;22;45195;-73
2021/07/17 08:13:00;;;;;;;;;29.00;24.50;;;;;18.83;63.43;102148.59;6337041;22;45600;-74
2021/07/17 08:15:25;;;;;;;;;24.75;22.75;;;;;18.96;63.50;102169.69;6337242;22;45232;-74
2021/07/17 08:17:53;;;;;;;;;24.75;21.00;;;;;18.82;63.37;102140.53;6310750;22;45413;-73
2021/07/17 08:20:19;;;;;;;;;26.25;23.50;;;;;18.83;63.61;102129.66;6339668;22;45388;-74
2021/07/17 08:22:47;;;;;;;;;22.75;20.75;;;;;18.94;63.32;102139.13;6338729;22;45393;-74
2021/07/17 08:25:13;;;;;;;;;24.50;24.50;;;;;19.24;63.65;102186.44;6311135;22;47991;-74
2021/07/17 08:27:39;;;;;;;;;19.00;18.25;;;;;19.27;63.60;102182.69;6338075;22;45294;-74
2021/07/17 08:30:07;;;;;;;;;28.00;28.00;;;;;19.24;63.33;102164.78;6338993;22;45244;-74
2021/07/17 08:32:32;;;;;;;;;29.75;29.00;;;;;18.86;63.48;102112.41;6338917;22;45352;-74
2021/07/17 08:34:58;;;;;;;;;34.00;28.25;;;;;18.95;63.49;102135.47;6310815;22;46815;-74
2021/07/17 08:37:23;;;;;;;;;27.25;25.00;;;;;18.77;63.42;102101.97;6338822;22;45235;-73
2021/07/17 08:39:49;;;;;;;;;26.00;25.00;;;;;18.83;63.87;102117.97;6339181;22;45749;-75
2021/07/17 08:42:18;;;;;;;;;28.25;27.00;;;;;18.80;63.74;102104.56;6312115;22;45414;-74
2021/07/17 08:44:48;;;;;;;;;24.25;22.50;;;;;18.80;63.59;102096.44;6340309;22;45356;-74
2021/07/17 08:47:17;;;;;;;;;26.25;23.00;;;;;19.08;64.01;102142.09;6339868;22;45469;-74
2021/07/17 08:49:44;;;;;;;;;27.75;26.25;;;;;18.95;63.68;102113.81;6340393;22;45310;-74
2021/07/17 08:52:10;;;;;;;;;25.75;23.75;;;;;19.40;63.83;102183.03;6339929;22;45430;-74
2021/07/17 08:54:40;;;;;;;;;28.75;27.75;;;;;19.23;63.75;102154.03;6340442;22;45346;-73
2021/07/17 08:57:09;;;;;;;;;29.75;25.25;;;;;19.00;63.47;102123.47;6340015;22;45518;-73
2021/07/17 08:59:36;;;;;;;;;27.50;25.25;;;;;19.11;63.80;102132.94;6340203;22;45330;-71
2021/07/17 09:02:01;;;;;;;;;32.75;29.25;;;;;19.22;63.52;102154.97;6339956;22;45405;-72
2021/07/17 09:04:27;;;;;;;;;27.50;24.50;;;;;19.18;64.10;102148.81;6339795;22;46468;-71
2021/07/17 09:07:17;;;;;;;;;23.00;21.00;;;;;19.43;64.06;102172.06;6340274;22;45336;-73
2021/07/17 09:09:42;;;;;;;;;24.75;22.25;;;;;19.24;63.48;102124.19;6340235;22;45279;-74
2021/07/17 09:12:22;;;;;;;;;31.75;27.00;;;;;19.29;63.43;102114.94;6340133;22;45279;-71
2021/07/17 09:14:47;;;;;;;;;29.75;27.00;;;;;19.33;63.90;102113.84;6335431;22;46243;-74
2021/07/17 09:17:27;;;;;;;;;24.00;21.75;;;;;19.69;63.46;102159.94;6310607;22;45414;-72
2021/07/17 09:19:58;;;;;;;;;27.00;24.00;;;;;19.58;63.37;102136.09;6339095;22;45345;-72
2021/07/17 09:22:32;;;;;;;;;23.75;22.75;;;;;19.70;63.32;102155.44;6339536;22;45701;-72
2021/07/17 09:25:14;;;;;;;;;26.75;24.50;;;;;19.66;63.52;102135.72;6339552;22;46664;-73
2021/07/17 09:27:40;;;;;;;;;24.00;22.00;;;;;19.88;63.34;102159.09;6340122;22;45284;-74
2021/07/17 09:30:26;;;;;;;;;24.25;21.25;;;;;19.99;63.18;102164.88;6340384;22;45337;-75
2021/07/17 09:32:59;;;;;;;;;31.00;29.25;;;;;20.04;62.83;102164.66;6312256;22;45322;-74
2021/07/17 09:35:24;;;;;;;;;31.50;27.25;;;;;19.76;62.68;102111.81;6341586;22;45955;-73
2021/07/17 09:37:55;;;;;;;;;23.25;22.50;;;;;19.92;62.89;102129.06;6341437;22;45342;-74
2021/07/17 09:40:21;;;;;;;;;29.75;24.75;;;;;20.16;62.75;102150.47;6340071;22;45420;-74
2021/07/17 09:42:47;;;;;;;;;24.75;23.75;;;;;19.93;62.68;102109.16;6312350;22;45445;-74
2021/07/17 09:45:31;;;;;;;;;25.50;22.00;;;;;20.06;62.31;102124.78;6341083;22;45968;-76
2021/07/17 09:48:22;;;;;;;;;24.50;22.00;;;;;20.24;62.50;102155.50;6340923;22;45258;-77
2021/07/17 09:50:53;;;;;;;;;28.75;24.75;;;;;20.20;61.98;102137.63;6316341;22;45208;-73
2021/07/17 09:53:39;;;;;;;;;26.00;22.50;;;;;20.31;62.33;102138.88;6340758;22;45438;-72
2021/07/17 09:56:12;;;;;;;;;24.50;20.75;;;;;20.16;62.38;102123.34;6310955;22;47225;-70
2021/07/17 09:58:39;;;;;;;;;32.25;30.25;;;;;19.94;61.51;102074.78;6338669;22;45522;-70
2021/07/17 10:01:19;;;;;;;;;26.75;25.25;;;;;20.39;62.20;102146.59;6337302;22;45566;-70
2021/07/17 10:03:46;;;;;;;;;26.50;21.00;;;;;20.18;61.54;102124.19;6338109;22;45463;-72
2021/07/17 10:06:27;;;;;;;;;22.50;20.75;;;;;20.21;61.82;102115.00;6310628;22;47127;-71
2021/07/17 10:08:52;;;;;;;;;24.50;19.25;;;;;20.23;60.77;102113.06;6338249;22;45657;-70
2021/07/17 10:11:26;;;;;;;;;25.00;21.25;;;;;20.25;61.20;102117.47;6338969;22;45366;-70
2021/07/17 10:13:53;;;;;;;;;20.25;19.25;;;;;20.47;61.39;102143.47;6338795;22;45353;-70
2021/07/17 10:16:20;;;;;;;;;20.00;20.00;;;;;20.17;61.27;102106.13;6340264;22;46318;-70
2021/07/17 10:18:47;;;;;;;;;26.50;20.75;;;;;20.31;61.50;102117.16;6341284;22;45273;-70
2021/07/17 10:21:13;;;;;;;;;27.00;23.75;;;;;20.54;61.55;102144.91;6341497;22;45266;-70
2021/07/17 10:23:39;;;;;;;;;25.00;21.00;;;;;20.35;61.02;102117.88;6340643;22;45176;-70
2021/07/17 10:26:06;;;;;;;;;36.00;31.75;;;;;20.42;61.56;102127.44;6341541;22;46141;-71
2021/07/17 10:28:32;;;;;;;;;23.25;23.00;;;;;20.38;60.99;102117.72;6341293;22;45308;-72
2021/07/17 10:30:58;;;;;;;;;29.75;25.50;;;;;20.67;60.75;102156.91;6341602;22;45464;-72
2021/07/17 10:33:39;;;;;;;;;20.25;19.50;;;;;20.41;61.10;102109.41;6341111;22;45367;-72
2021/07/17 10:36:09;;;;;;;;;28.00;23.75;;;;;20.33;61.00;102089.94;6341673;22;45266;-72
2021/07/17 10:38:39;;;;;;;;;20.75;18.25;;;;;20.66;60.96;102143.41;6341410;22;45569;-74
2021/07/17 10:41:05;;;;;;;;;20.75;19.75;;;;;20.59;61.18;102128.41;6341042;22;45322;-71
2021/07/17 10:43:31;;;;;;;;;19.75;18.25;;;;;20.50;61.34;102116.22;6341221;22;45436;-71
2021/07/17 10:45:56;;;;;;;;;28.00;24.50;;;;;20.59;61.52;102122.97;6313013;22;46164;-71
2021/07/17 10:48:34;;;;;;;;;28.50;26.50;;;;;20.57;61.24;102103.19;6341559;22;45339;-71
2021/07/17 10:51:02;;;;;;;;;21.75;18.75;;;;;20.81;61.06;102141.72;6313520;22;45268;-71
2021/07/17 10:53:43;;;;;;;;;21.25;20.75;;;;;20.83;60.86;102131.66;6341213;22;45444;-71
2021/07/17 10:56:26;;;;;;;;;22.50;20.25;;;;;20.87;60.64;102125.13;6341735;22;46349;-71
2021/07/17 10:58:53;;;;;;;;;24.00;22.25;;;;;20.71;60.42;102104.25;6341362;22;45426;-71
2021/07/17 11:01:19;;;;;;;;;25.50;21.25;;;;;20.68;60.88;102089.94;6341608;22;45756;-71
2021/07/17 11:03:45;;;;;;;;;20.00;20.00;;;;;20.87;60.70;102114.28;6312095;22;45623;-73
2021/07/17 11:06:24;;;;;;;;;21.25;19.25;;;;;20.82;61.11;102100.06;6341576;22;45400;-71
2021/07/17 11:08:50;;;;;;;;;24.00;22.00;;;;;20.99;60.56;102120.88;6341146;22;45200;-71
2021/07/17 11:11:37;;;;;;;;;27.00;22.75;;;;;21.04;60.53;102129.63;6313414;22;45634;-71
2021/07/17 11:14:05;;;;;;;;;22.25;21.25;;;;;21.12;60.98;102140.97;6341473;22;45373;-73
2021/07/17 11:17:00;;;;;;;;;23.75;22.75;;;;;21.15;60.40;102138.06;6341213;22;45488;-71
2021/07/17 11:19:27;;;;;;;;;23.25;21.75;;;;;20.98;60.32;102103.72;6286037;22;45569;-71